უმეტესად მოღრუბლული
უმეტესად მოღრუბლული
უმეტესად მოღრუბლული
უმეტესად მოღრუბლული
ნაწილობრივ მოღრუბლული ალაგ-ალაგ მიმოფანტული ღრუბლებით
ნაწილობრივ მოღრუბლული ალაგ-ალაგ მიმოფანტული ღრუბლებით
ნაწილობრივ მოღრუბლული ალაგ-ალაგ მიმოფანტული ღრუბლებით
(°C)
15°
15°
15°
15°
15°
15°
14°
14°
14°
14°
14°
14°
14°
14°
(°C)
13°
13°
13°
13°
13°
13°
13°
ჩჩდ
ჩჩდ
ჩჩდ
ჩჩდ
ჩდ
ჩდ
ჩდ
(km/h)
13-21
9-19
9-15
8-15
7-16
7-14
6-15
(მმ)
0
0
0
0
0
0
0
(%)
0
0
0
0
0
0
0

მზის სიმაღლე

/ -74.6°
sun-icon
UV 2
07:48
17:52
კლებადი მთვარე (254°)
----
13:05

METAR ბუენოს-აირესი (SABE)-თვის

დრო პირობები ტემპერატურა/
ნამი
ქარი ხილვადობა ამინდი ღრუბლები წნევა ცვლილება დაუმუშავებელი
MVFR 15°C / 11°C 340º 7kt 9700m - Broken Clouds 3000ft 1024 No Significant change SABE 300400Z 34007KT 9999 BKN030 15/11 Q1024 NOSIG
MVFR 15°C / 11°C 350º 3kt 9700m - Overcast 3000ft 1024 No Significant change SABE 300300Z 35003KT 9999 OVC030 15/11 Q1024 NOSIG
MVFR 15°C / 11°C 340º variable 290º to 360º 5kt 9700m - Overcast 2700ft 1024 No Significant change SABE 300200Z 34005KT 290V360 9999 OVC027 15/11 Q1024 NOSIG
MVFR 15°C / 10°C 360º 10kt 9700m - Overcast 2800ft 1023 No Significant change SABE 300100Z 36010KT 9999 OVC028 15/10 Q1023 NOSIG
MVFR 15°C / 12°C 360º 8kt 9700m - Overcast 2800ft 1023 No Significant change SABE 300000Z 36008KT 9999 OVC028 15/12 Q1023 NOSIG
MVFR 15°C / 11°C 20º variable 350º to 050º 6kt 9700m - Overcast 3000ft 1023 No Significant change SABE 292300Z 02006KT 350V050 9999 OVC030 15/11 Q1023 NOSIG
MVFR 15°C / 11°C 340º variable 300º to 020º 5kt 9700m - Broken Clouds 2900ft 1023 No Significant change SABE 292200Z 34005KT 300V020 9999 BKN029 15/11 Q1023 NOSIG
MVFR 15°C / 11°C 330º 7kt 9700m - Broken Clouds 2800ft 1023 No Significant change SABE 292100Z 33007KT 9999 BKN028 15/11 Q1023 NOSIG
MVFR 15°C / 11°C 350º 8kt 9700m - Broken Clouds 2600ft 1022 No Significant change SABE 292000Z 35008KT 9999 BKN026 15/11 Q1022 NOSIG
MVFR 15°C / 11°C 360º variable 330º to 030º 8kt 9700m - Broken Clouds 2700ft 1022 No Significant change SABE 291900Z 36008KT 330V030 9999 BKN027 15/11 Q1022 NOSIG
VFR 15°C / 12°C 10º variable 340º to 040º 7kt 9700m - Scattered Clouds 2700ft 1023 No Significant change SABE 291800Z 01007KT 340V040 9999 SCT027 15/12 Q1023 NOSIG
MVFR 14°C / 12°C 20º variable 300º to 050º 4kt 9700m - Broken Clouds 2300ft 1024 No Significant change SABE 291700Z 02004KT 300V050 9999 BKN023 14/12 Q1024 NOSIG
VFR 14°C / 12°C 10º 5kt 9700m - Scattered Clouds 600ft 1024 No Significant change SABE 291600Z 01005KT 9999 SCT006 14/12 Q1024 NOSIG
VFR 13°C / 11°C 350º variable 330º to 030º 6kt 9700m - Scattered Clouds 500ft
Broken Clouds 3200ft
1025 No Significant change SABE 291519Z 35006KT 330V030 9999 SCT005 BKN032 13/11 Q1025 NOSIG
IFR 13°C / 11°C 340º variable 320º to 020º 6kt 9000m - Broken Clouds 500ft
Broken Clouds 3400ft
1025 Becoming: Visibility 9999. NSW Broken Clouds 3000ft. SABE 291500Z 34006KT 320V020 9000 BKN005 BKN034 13/11 Q1025 BECMG 9999 NSW BKN030
LIFR 12°C / 11°C 330º variable 290º to 020º 5kt 9000m - Overcast 400ft 1026 No Significant change SABE 291400Z 33005KT 290V020 9000 OVC004 12/11 Q1026 NOSIG
LIFR 12°C / 11°C 330º variable 280º to 360º 6kt 9000m - Overcast 400ft 1026 No Significant change SABE 291336Z 33006KT 280V360 9000 OVC004 12/11 Q1026 NOSIG
IFR 12°C / 11°C 350º 5kt 9000m - Broken Clouds 600ft
Overcast 3800ft
1026 No Significant change SABE 291300Z 35005KT 9000 BKN006 OVC038 12/11 Q1026 NOSIG
VFR 12°C / 10°C 330º 6kt 9700m - Scattered Clouds 700ft
Overcast 3800ft
1026 No Significant change SABE 291200Z 33006KT 9999 SCT007 OVC038 12/10 Q1026 NOSIG
IFR 12°C / 10°C 320º variable 290º to 350º 7kt 9700m - Broken Clouds 700ft
Overcast 4000ft
1026 No Significant change SABE 291130Z 32007KT 290V350 9999 BKN007 OVC040 12/10 Q1026 NOSIG
VFR 12°C / 11°C 320º 5kt 9700m - Few Clouds 700ft
Overcast 3900ft
1025 No Significant change SABE 291100Z 32005KT 9999 FEW007 OVC039 12/11 Q1025 NOSIG
VFR 12°C / 11°C 340º variable 310º to 010º 3kt 9700m - Overcast 3700ft 1025 No Significant change SABE 291000Z 34003KT 310V010 9999 OVC037 12/11 Q1025 NOSIG
VFR 12°C / 11°C 320º variable 290º to 350º 4kt 9700m - Few Clouds 500ft
Overcast 3600ft
1024 No Significant change SABE 290900Z 32004KT 290V350 9999 FEW005 OVC036 12/11 Q1024 NOSIG
VFR 12°C / 11°C 330º variable 310º to 010º 3kt 9700m - Few Clouds 500ft
Overcast 4000ft
1024 No Significant change SABE 290837Z 33003KT 310V010 9999 FEW005 OVC040 12/11 Q1024 NOSIG

MVFR

15°C / 11°C

[მეტი]
ქარი 340º 7kt
ხილვადობა 9700m
ამინდი -
ღრუბლები Broken Clouds 3000ft
წნევა 1024
ცვლილება No Significant change
დაუმუშავებელი SABE 300400Z 34007KT 9999 BKN030 15/11 Q1024 NOSIG

MVFR

15°C / 11°C

[მეტი]
ქარი 350º 3kt
ხილვადობა 9700m
ამინდი -
ღრუბლები Overcast 3000ft
წნევა 1024
ცვლილება No Significant change
დაუმუშავებელი SABE 300300Z 35003KT 9999 OVC030 15/11 Q1024 NOSIG

MVFR

15°C / 11°C

[მეტი]
ქარი 340º variable 290º to 360º 5kt
ხილვადობა 9700m
ამინდი -
ღრუბლები Overcast 2700ft
წნევა 1024
ცვლილება No Significant change
დაუმუშავებელი SABE 300200Z 34005KT 290V360 9999 OVC027 15/11 Q1024 NOSIG

MVFR

15°C / 10°C

[მეტი]
ქარი 360º 10kt
ხილვადობა 9700m
ამინდი -
ღრუბლები Overcast 2800ft
წნევა 1023
ცვლილება No Significant change
დაუმუშავებელი SABE 300100Z 36010KT 9999 OVC028 15/10 Q1023 NOSIG

MVFR

15°C / 12°C

[მეტი]
ქარი 360º 8kt
ხილვადობა 9700m
ამინდი -
ღრუბლები Overcast 2800ft
წნევა 1023
ცვლილება No Significant change
დაუმუშავებელი SABE 300000Z 36008KT 9999 OVC028 15/12 Q1023 NOSIG

MVFR

15°C / 11°C

[მეტი]
ქარი 20º variable 350º to 050º 6kt
ხილვადობა 9700m
ამინდი -
ღრუბლები Overcast 3000ft
წნევა 1023
ცვლილება No Significant change
დაუმუშავებელი SABE 292300Z 02006KT 350V050 9999 OVC030 15/11 Q1023 NOSIG

MVFR

15°C / 11°C

[მეტი]
ქარი 340º variable 300º to 020º 5kt
ხილვადობა 9700m
ამინდი -
ღრუბლები Broken Clouds 2900ft
წნევა 1023
ცვლილება No Significant change
დაუმუშავებელი SABE 292200Z 34005KT 300V020 9999 BKN029 15/11 Q1023 NOSIG

MVFR

15°C / 11°C

[მეტი]
ქარი 330º 7kt
ხილვადობა 9700m
ამინდი -
ღრუბლები Broken Clouds 2800ft
წნევა 1023
ცვლილება No Significant change
დაუმუშავებელი SABE 292100Z 33007KT 9999 BKN028 15/11 Q1023 NOSIG

MVFR

15°C / 11°C

[მეტი]
ქარი 350º 8kt
ხილვადობა 9700m
ამინდი -
ღრუბლები Broken Clouds 2600ft
წნევა 1022
ცვლილება No Significant change
დაუმუშავებელი SABE 292000Z 35008KT 9999 BKN026 15/11 Q1022 NOSIG

MVFR

15°C / 11°C

[მეტი]
ქარი 360º variable 330º to 030º 8kt
ხილვადობა 9700m
ამინდი -
ღრუბლები Broken Clouds 2700ft
წნევა 1022
ცვლილება No Significant change
დაუმუშავებელი SABE 291900Z 36008KT 330V030 9999 BKN027 15/11 Q1022 NOSIG

VFR

15°C / 12°C

[მეტი]
ქარი 10º variable 340º to 040º 7kt
ხილვადობა 9700m
ამინდი -
ღრუბლები Scattered Clouds 2700ft
წნევა 1023
ცვლილება No Significant change
დაუმუშავებელი SABE 291800Z 01007KT 340V040 9999 SCT027 15/12 Q1023 NOSIG

MVFR

14°C / 12°C

[მეტი]
ქარი 20º variable 300º to 050º 4kt
ხილვადობა 9700m
ამინდი -
ღრუბლები Broken Clouds 2300ft
წნევა 1024
ცვლილება No Significant change
დაუმუშავებელი SABE 291700Z 02004KT 300V050 9999 BKN023 14/12 Q1024 NOSIG

VFR

14°C / 12°C

[მეტი]
ქარი 10º 5kt
ხილვადობა 9700m
ამინდი -
ღრუბლები Scattered Clouds 600ft
წნევა 1024
ცვლილება No Significant change
დაუმუშავებელი SABE 291600Z 01005KT 9999 SCT006 14/12 Q1024 NOSIG

VFR

13°C / 11°C

[მეტი]
ქარი 350º variable 330º to 030º 6kt
ხილვადობა 9700m
ამინდი -
ღრუბლები Scattered Clouds 500ft
Broken Clouds 3200ft
წნევა 1025
ცვლილება No Significant change
დაუმუშავებელი SABE 291519Z 35006KT 330V030 9999 SCT005 BKN032 13/11 Q1025 NOSIG

IFR

13°C / 11°C

[მეტი]
ქარი 340º variable 320º to 020º 6kt
ხილვადობა 9000m
ამინდი -
ღრუბლები Broken Clouds 500ft
Broken Clouds 3400ft
წნევა 1025
ცვლილება Becoming: Visibility 9999. NSW Broken Clouds 3000ft.
დაუმუშავებელი SABE 291500Z 34006KT 320V020 9000 BKN005 BKN034 13/11 Q1025 BECMG 9999 NSW BKN030

LIFR

12°C / 11°C

[მეტი]
ქარი 330º variable 290º to 020º 5kt
ხილვადობა 9000m
ამინდი -
ღრუბლები Overcast 400ft
წნევა 1026
ცვლილება No Significant change
დაუმუშავებელი SABE 291400Z 33005KT 290V020 9000 OVC004 12/11 Q1026 NOSIG

LIFR

12°C / 11°C

[მეტი]
ქარი 330º variable 280º to 360º 6kt
ხილვადობა 9000m
ამინდი -
ღრუბლები Overcast 400ft
წნევა 1026
ცვლილება No Significant change
დაუმუშავებელი SABE 291336Z 33006KT 280V360 9000 OVC004 12/11 Q1026 NOSIG

IFR

12°C / 11°C

[მეტი]
ქარი 350º 5kt
ხილვადობა 9000m
ამინდი -
ღრუბლები Broken Clouds 600ft
Overcast 3800ft
წნევა 1026
ცვლილება No Significant change
დაუმუშავებელი SABE 291300Z 35005KT 9000 BKN006 OVC038 12/11 Q1026 NOSIG

VFR

12°C / 10°C

[მეტი]
ქარი 330º 6kt
ხილვადობა 9700m
ამინდი -
ღრუბლები Scattered Clouds 700ft
Overcast 3800ft
წნევა 1026
ცვლილება No Significant change
დაუმუშავებელი SABE 291200Z 33006KT 9999 SCT007 OVC038 12/10 Q1026 NOSIG

IFR

12°C / 10°C

[მეტი]
ქარი 320º variable 290º to 350º 7kt
ხილვადობა 9700m
ამინდი -
ღრუბლები Broken Clouds 700ft
Overcast 4000ft
წნევა 1026
ცვლილება No Significant change
დაუმუშავებელი SABE 291130Z 32007KT 290V350 9999 BKN007 OVC040 12/10 Q1026 NOSIG

VFR

12°C / 11°C

[მეტი]
ქარი 320º 5kt
ხილვადობა 9700m
ამინდი -
ღრუბლები Few Clouds 700ft
Overcast 3900ft
წნევა 1025
ცვლილება No Significant change
დაუმუშავებელი SABE 291100Z 32005KT 9999 FEW007 OVC039 12/11 Q1025 NOSIG

VFR

12°C / 11°C

[მეტი]
ქარი 340º variable 310º to 010º 3kt
ხილვადობა 9700m
ამინდი -
ღრუბლები Overcast 3700ft
წნევა 1025
ცვლილება No Significant change
დაუმუშავებელი SABE 291000Z 34003KT 310V010 9999 OVC037 12/11 Q1025 NOSIG

VFR

12°C / 11°C

[მეტი]
ქარი 320º variable 290º to 350º 4kt
ხილვადობა 9700m
ამინდი -
ღრუბლები Few Clouds 500ft
Overcast 3600ft
წნევა 1024
ცვლილება No Significant change
დაუმუშავებელი SABE 290900Z 32004KT 290V350 9999 FEW005 OVC036 12/11 Q1024 NOSIG

VFR

12°C / 11°C

[მეტი]
ქარი 330º variable 310º to 010º 3kt
ხილვადობა 9700m
ამინდი -
ღრუბლები Few Clouds 500ft
Overcast 4000ft
წნევა 1024
ცვლილება No Significant change
დაუმუშავებელი SABE 290837Z 33003KT 310V010 9999 FEW005 OVC040 12/11 Q1024 NOSIG

TAF ბუენოს-აირესი (SABE)-თვის

From till


Maximum Temperature 16ºC on . Minimum Temperature 11ºC on .
From till Wind 350º 5kt. Visibility 9700m. Broken Clouds 2500ft.
Becoming from till
Temporarly from till Visibility 804.670m. Fog . Broken Clouds 500ft. Overcast 2500ft.
Becoming from till
Becoming from till

დაუმუშავებელი: TAF SABE 292300Z 3000/3024 35005KT 9999 BKN025 TX16/3018Z TN11/3011Z BECMG 3004/3006 VRB03KT 4000 BR TEMPO 3006/3011 0800 FG BKN005 OVC025 BECMG 3012/3014 9999 NSW SCT030 BECMG 3018/3020 05005KT

რადარი ბუენოს-აირესი-თვის

გაწურეთ
Მსუბუქი
ზომიერი
Მძიმე
Ძალიან მძიმე
სეტყვა

მდებარეობის მარკერი მოთავსებულია ბუენოს-აირესი -ზე. ნარინჯისფერი ჯვრები მიუთითებს ელვაზე. nowcast.de-ის მიერ მოწოდებული მონაცემები (ხელმისაწვდომია აშშ-ში, ევროპაში, ავსტრალიაში). წვიმა ან მსუბუქი თოვლი შეიძლება იყოს უხილავი რადარისთვის. ნალექის ინტენსივობა არის ფერადი კოდირებული, დაწყებული ფირუზისფერიდან წითამდე.

მიმდინარე სატელიტური სურათები ბუენოს-აირესი-თვის, არგენტინა

ლოკაციის მარკერი დაყენებყლია ბუენოს-აირესიზე. [მეტი]

რეალურ დროში სატელიტური სურათი აერთიანებს ხილულ სინათლეს დღისით ღამის განმავლობაში ინფრაწითელ გამოსხივებასთან ერთად. ღამით, სურათი არ არის მუქი, რადგან ინფრაწითელ გამოსხივებას შეუძლია ტემპერატურის განსხვავებების დადგენა. სამწუხაროდ, დაბალი ღრუბლები და ნისლი ძნელია განასხვავონ მიწის ტემპერატურისგან და, შესაბამისად, ისინი შეიძლება თითქმის არ ჩანდეს ღამით. Meteosat სატელიტური გამოსახულება ევროპისთვის ახლდება რეალურ დროში ყოველ 5 წუთში. GOES-16/GOES-17 (ჩრდილოეთი და სამხრეთ ამერიკა) და ჰიმავარი (აზია) გამოსახულებები ახლდება ყოველ 10 წუთში.

ნალექი შეფასებულია რადარებიდან და თანამგზავრებიდან. სატელიტების ნალექის შეფასებები ღამით ნაკლებად ზუსტია, ვიდრე დღისით.

© 2024 meteoblue, NOAA Satellites GOES-16 and EUMETSAT. ელვის შესახებ მონაცემები მოწოდებული nowcast მიერ.

თავში დაბრუნება
×
გამარჯობა,
როგორც ჩანს, რეკლამის ბლოკერს იყენებთ.

რეკლამა აუცილებელია ჩვენი უფასო ვებსაიტის უნიკალური დეტალებითა და სიზუსტით შესანარჩუნებლად.

გთხოვთ თეთრი სია www.meteoblue.com თქვენს რეკლამის ბლოკერზე ან განიხილოთ ჩვენი ერთ-ერთი პროდუქტის შეძენა:

უკვე გაქვთ გამოწერა?
შემდეგ გთხოვთ შედით სისტემაში.